createdAt,value
2022-12-11T00:01:28.195Z,11.77
2022-12-11T00:03:54.777Z,12.52
2022-12-11T00:06:22.824Z,11.68
2022-12-11T00:08:54.037Z,11.00
2022-12-11T00:11:22.103Z,10.88
2022-12-11T00:13:48.557Z,10.90
2022-12-11T00:16:15.597Z,9.50
2022-12-11T00:18:42.505Z,11.70
2022-12-11T00:21:13.114Z,11.98
2022-12-11T00:23:40.364Z,11.57
2022-12-11T00:26:09.532Z,11.90
2022-12-11T00:28:36.499Z,11.98
2022-12-11T00:31:07.249Z,12.15
2022-12-11T00:33:33.793Z,12.23
2022-12-11T00:36:00.450Z,11.07
2022-12-11T00:38:27.559Z,12.20
2022-12-11T00:40:58.425Z,13.82
2022-12-11T00:43:24.926Z,12.57
2022-12-11T00:45:51.404Z,12.82
2022-12-11T00:48:17.882Z,11.07
2022-12-11T00:50:44.320Z,10.30
2022-12-11T00:53:10.779Z,10.50
2022-12-11T00:55:40.324Z,10.20
2022-12-11T01:00:34.425Z,7.60
2022-12-11T01:03:01.306Z,8.68
2022-12-11T01:05:28.353Z,7.72
2022-12-11T01:07:54.955Z,8.30
2022-12-11T01:10:24.331Z,7.97
2022-12-11T01:13:02.522Z,8.88
2022-12-11T01:15:39.968Z,7.20
2022-12-11T01:18:07.824Z,6.63
2022-12-11T01:20:34.364Z,8.18
2022-12-11T01:23:01.195Z,8.52
2022-12-11T01:25:28.405Z,7.75
2022-12-11T01:27:55.993Z,7.68
2022-12-11T01:30:24.840Z,8.50
2022-12-11T01:32:52.179Z,8.85
2022-12-11T01:35:19.220Z,9.50
2022-12-11T01:37:46.044Z,5.35
2022-12-11T01:40:17.855Z,10.05
2022-12-11T01:42:44.673Z,9.27
2022-12-11T01:45:21.285Z,9.73
2022-12-11T01:47:49.244Z,10.20
2022-12-11T01:50:16.134Z,9.15
2022-12-11T01:52:46.496Z,9.48
2022-12-11T01:55:13.703Z,8.75
2022-12-11T01:57:43.650Z,9.55
2022-12-11T02:00:10.992Z,9.38
2022-12-11T02:02:37.515Z,8.45
2022-12-11T02:05:06.751Z,8.05
2022-12-11T02:07:39.872Z,10.85
2022-12-11T02:10:07.394Z,9.10
2022-12-11T02:12:40.642Z,9.75
2022-12-11T02:15:29.743Z,8.10
2022-12-11T02:18:23.078Z,9.18
2022-12-11T02:21:08.687Z,8.20
2022-12-11T02:24:16.858Z,9.50
2022-12-11T02:27:02.058Z,8.90
2022-12-11T02:29:53.372Z,9.23
2022-12-11T02:32:26.126Z,9.35
2022-12-11T02:34:55.515Z,9.38
2022-12-11T02:37:25.706Z,10.07
2022-12-11T02:39:54.907Z,9.50
2022-12-11T02:42:22.831Z,9.73
2022-12-11T02:44:52.201Z,11.23
2022-12-11T02:47:21.219Z,9.13
2022-12-11T02:49:50.219Z,10.00
2022-12-11T02:52:20.767Z,8.95
2022-12-11T02:54:49.417Z,9.60
2022-12-11T02:57:31.020Z,10.07
2022-12-11T02:59:57.519Z,9.90
2022-12-11T03:02:24.080Z,9.80
2022-12-11T03:04:50.945Z,10.00
2022-12-11T03:07:27.756Z,9.70
2022-12-11T03:09:54.515Z,9.90
2022-12-11T03:12:28.196Z,8.40
2022-12-11T03:14:55.797Z,9.82
2022-12-11T03:17:28.084Z,8.57
2022-12-11T03:20:25.267Z,10.18
2022-12-11T03:23:09.414Z,11.10
2022-12-11T03:25:44.366Z,11.13
2022-12-11T03:28:19.938Z,9.60
2022-12-11T03:30:51.480Z,10.95
2022-12-11T03:33:25.573Z,10.18
2022-12-11T03:35:57.045Z,10.05
2022-12-11T03:38:30.427Z,8.27
2022-12-11T03:41:02.167Z,9.65
2022-12-11T03:43:32.146Z,10.68
2022-12-11T03:46:00.577Z,10.32
2022-12-11T03:48:34.516Z,10.30
2022-12-11T03:51:05.083Z,9.52
2022-12-11T03:53:36.917Z,9.77
2022-12-11T03:56:07.949Z,10.88
2022-12-11T03:58:37.483Z,8.55
2022-12-11T04:03:30.565Z,9.00
2022-12-11T04:05:57.068Z,10.00
2022-12-11T04:08:24.244Z,8.65
2022-12-11T04:11:14.052Z,10.50
2022-12-11T04:13:41.997Z,9.80
2022-12-11T04:16:09.360Z,9.13
2022-12-11T04:18:54.324Z,9.70
2022-12-11T04:21:39.959Z,9.13
2022-12-11T04:24:16.389Z,9.57
2022-12-11T04:26:45.717Z,9.55
2022-12-11T04:29:13.082Z,10.77
2022-12-11T04:31:39.855Z,8.93
2022-12-11T04:34:06.305Z,10.07
2022-12-11T04:36:32.748Z,10.60
2022-12-11T04:38:59.295Z,9.75
2022-12-11T04:41:25.779Z,11.52
2022-12-11T04:43:52.263Z,10.05
2022-12-11T04:46:21.438Z,10.68
2022-12-11T04:48:52.398Z,11.10
2022-12-11T04:51:22.563Z,10.00
2022-12-11T04:53:49.027Z,10.50
2022-12-11T04:56:16.217Z,8.93
2022-12-11T04:58:43.952Z,10.50
2022-12-11T05:01:14.995Z,9.20
2022-12-11T05:03:42.341Z,10.48
2022-12-11T05:06:09.780Z,9.30
2022-12-11T05:08:38.595Z,10.15
2022-12-11T05:11:07.645Z,10.20
2022-12-11T05:13:34.519Z,10.32
2022-12-11T05:16:04.457Z,9.77
2022-12-11T05:18:30.939Z,9.90
2022-12-11T05:21:00.439Z,10.35
2022-12-11T05:25:57.822Z,9.20
2022-12-11T05:28:25.815Z,8.80
2022-12-11T05:31:00.204Z,9.23
2022-12-11T05:33:28.504Z,9.25
2022-12-11T05:35:55.275Z,9.68
2022-12-11T05:38:22.588Z,9.05
2022-12-11T05:40:59.979Z,9.57
2022-12-11T05:43:28.160Z,9.52
2022-12-11T05:45:55.520Z,10.82
2022-12-11T05:48:22.260Z,9.35
2022-12-11T05:51:00.396Z,10.25
2022-12-11T05:53:26.838Z,10.68
2022-12-11T05:55:53.555Z,9.57
2022-12-11T05:58:21.110Z,9.70
2022-12-11T06:00:48.581Z,9.48
2022-12-11T06:03:15.053Z,9.80
2022-12-11T06:05:43.082Z,9.13
2022-12-11T06:08:09.729Z,9.43
2022-12-11T06:10:36.259Z,9.65
2022-12-11T06:13:02.982Z,9.65
2022-12-11T06:15:29.733Z,9.30
2022-12-11T06:17:56.145Z,8.60
2022-12-11T06:20:22.564Z,9.55
2022-12-11T06:22:49.031Z,10.00
2022-12-11T06:25:15.512Z,8.93
2022-12-11T06:27:41.935Z,9.38
2022-12-11T06:30:09.019Z,9.10
2022-12-11T06:32:35.491Z,9.20
2022-12-11T06:35:01.980Z,9.15
2022-12-11T06:37:28.404Z,8.32
2022-12-11T06:39:54.865Z,9.07
2022-12-11T06:42:21.357Z,8.90
2022-12-11T06:44:47.928Z,9.55
2022-12-11T06:47:14.373Z,9.93
2022-12-11T06:49:40.820Z,9.07
2022-12-11T06:52:07.223Z,8.35
2022-12-11T06:54:33.834Z,7.97
2022-12-11T06:57:00.335Z,8.75
2022-12-11T06:59:26.804Z,8.05
2022-12-11T07:01:53.287Z,8.93
2022-12-11T07:04:19.862Z,8.23
2022-12-11T07:06:47.432Z,7.03
2022-12-11T07:09:13.914Z,8.75
2022-12-11T07:11:40.308Z,8.43
2022-12-11T07:14:06.809Z,8.80
2022-12-11T07:16:33.372Z,8.23
2022-12-11T07:19:00.408Z,8.32
2022-12-11T07:21:26.890Z,8.73
2022-12-11T07:23:53.356Z,8.18
2022-12-11T07:26:21.148Z,8.35
2022-12-11T07:28:48.841Z,7.47
2022-12-11T07:31:20.723Z,4.30
2022-12-11T07:33:47.414Z,8.15
2022-12-11T07:36:15.214Z,8.90
2022-12-11T07:38:41.828Z,7.88
2022-12-11T07:41:11.379Z,7.85
2022-12-11T07:46:07.102Z,7.78
2022-12-11T07:48:36.437Z,7.55
2022-12-11T07:51:12.850Z,7.82
2022-12-11T07:53:39.258Z,8.30
2022-12-11T07:56:06.162Z,7.95
2022-12-11T07:58:32.812Z,7.70
2022-12-11T08:00:59.283Z,8.25
2022-12-11T08:03:25.779Z,7.93
2022-12-11T08:05:52.729Z,7.93
2022-12-11T08:08:19.686Z,7.20
2022-12-11T08:10:46.248Z,9.18
2022-12-11T08:13:12.722Z,8.68
2022-12-11T08:15:39.273Z,7.90
2022-12-11T08:18:05.790Z,6.97
2022-12-11T08:20:32.311Z,8.70
2022-12-11T08:22:59.280Z,8.13
2022-12-11T08:25:25.934Z,9.25
2022-12-11T08:27:52.419Z,7.53
2022-12-11T08:30:18.953Z,8.50
2022-12-11T08:32:45.432Z,8.20
2022-12-11T08:35:12.276Z,8.32
2022-12-11T08:37:39.037Z,7.65
2022-12-11T08:40:06.365Z,8.52
2022-12-11T08:42:32.810Z,8.07
2022-12-11T08:44:59.600Z,8.57
2022-12-11T08:47:26.379Z,7.40
2022-12-11T08:49:52.927Z,8.65
2022-12-11T08:52:19.367Z,7.28
2022-12-11T08:54:45.793Z,8.68
2022-12-11T08:57:12.316Z,8.02
2022-12-11T08:59:38.758Z,9.10
2022-12-11T09:02:05.243Z,8.70
2022-12-11T09:04:31.819Z,8.80
2022-12-11T09:06:58.588Z,8.45
2022-12-11T09:09:25.105Z,8.75
2022-12-11T09:11:51.586Z,8.63
2022-12-11T09:14:18.294Z,9.23
2022-12-11T09:16:44.796Z,7.20
2022-12-11T09:19:14.203Z,8.02
2022-12-11T09:21:41.701Z,8.52
2022-12-11T09:24:10.140Z,9.15
2022-12-11T09:26:36.701Z,7.80
2022-12-11T09:29:05.343Z,7.57
2022-12-11T09:31:34.434Z,7.55
2022-12-11T09:34:06.934Z,7.65
2022-12-11T09:36:34.151Z,6.97
2022-12-11T09:39:05.662Z,7.03
2022-12-11T09:41:40.354Z,8.25
2022-12-11T09:44:34.523Z,8.05
2022-12-11T09:47:01.641Z,7.25
2022-12-11T09:49:37.755Z,7.72
2022-12-11T09:52:10.010Z,7.10
2022-12-11T09:54:36.824Z,7.82
2022-12-11T09:57:30.840Z,7.80
2022-12-11T10:00:32.769Z,7.00
2022-12-11T10:03:09.742Z,7.85
2022-12-11T10:05:42.019Z,7.78
2022-12-11T10:08:13.378Z,7.30
2022-12-11T10:10:44.210Z,7.53
2022-12-11T10:13:34.280Z,7.90
2022-12-11T10:16:40.816Z,6.80
2022-12-11T10:24:57.968Z,7.13
2022-12-11T10:27:23.331Z,7.28
2022-12-11T10:30:01.248Z,7.30
2022-12-11T10:32:53.091Z,7.20
2022-12-11T10:35:24.881Z,6.95
2022-12-11T10:37:55.571Z,6.55
2022-12-11T10:40:24.489Z,6.40
2022-12-11T10:42:54.698Z,6.53
2022-12-11T10:45:21.233Z,6.20
2022-12-11T10:47:47.688Z,6.90
2022-12-11T10:50:25.794Z,6.43
2022-12-11T10:52:53.459Z,6.35
2022-12-11T10:55:24.485Z,6.45
2022-12-11T10:57:58.697Z,6.97
2022-12-11T11:00:46.065Z,6.50
2022-12-11T11:03:26.766Z,6.50
2022-12-11T11:06:15.266Z,5.32
2022-12-11T11:08:45.072Z,6.00
2022-12-11T11:11:25.433Z,5.35
2022-12-11T11:13:52.385Z,6.43
2022-12-11T11:16:22.438Z,5.93
2022-12-11T11:18:53.353Z,5.75
2022-12-11T11:21:23.394Z,5.93
2022-12-11T11:23:53.566Z,6.13
2022-12-11T11:26:23.031Z,6.47
2022-12-11T11:28:55.919Z,6.28
2022-12-11T11:31:32.759Z,6.75
2022-12-11T11:34:06.074Z,6.18
2022-12-11T11:36:35.579Z,6.15
2022-12-11T11:39:28.598Z,5.75
2022-12-11T11:42:27.658Z,4.75
2022-12-11T11:45:05.684Z,6.10
2022-12-11T11:47:41.156Z,6.32
2022-12-11T11:50:20.087Z,6.05
2022-12-11T11:52:53.556Z,5.93
2022-12-11T11:55:57.148Z,6.57
2022-12-11T11:58:47.487Z,6.72
2022-12-11T12:01:20.701Z,6.65
2022-12-11T12:03:48.579Z,6.88
2022-12-11T12:06:50.995Z,5.90
2022-12-11T12:09:34.529Z,6.60
2022-12-11T12:12:19.409Z,6.25
2022-12-11T12:15:00.680Z,5.93
2022-12-11T12:17:36.088Z,6.20
2022-12-11T12:20:25.649Z,5.90
2022-12-11T12:23:07.618Z,6.70
2022-12-11T12:25:43.724Z,7.45
2022-12-11T12:28:40.326Z,6.90
2022-12-11T12:31:32.105Z,7.30
2022-12-11T12:34:36.259Z,7.45
2022-12-11T12:37:22.901Z,7.13
2022-12-11T12:40:13.353Z,7.55
2022-12-11T12:43:24.267Z,7.88
2022-12-11T12:46:11.643Z,7.75
2022-12-11T12:48:39.187Z,7.55
2022-12-11T12:51:07.114Z,7.85
2022-12-11T12:53:39.931Z,7.32
2022-12-11T12:56:07.651Z,8.20
2022-12-11T12:58:34.791Z,7.75
2022-12-11T13:01:31.487Z,8.40
2022-12-11T13:04:16.795Z,8.18
2022-12-11T13:06:54.909Z,7.70
2022-12-11T13:09:26.884Z,7.97
2022-12-11T13:11:58.062Z,8.23
2022-12-11T13:14:32.622Z,7.93
2022-12-11T13:17:26.435Z,8.18
2022-12-11T13:20:12.402Z,7.97
2022-12-11T13:22:53.671Z,8.27
2022-12-11T13:25:36.189Z,8.02
2022-12-11T13:28:30.225Z,8.23
2022-12-11T13:31:20.015Z,8.23
2022-12-11T13:33:53.531Z,7.93
2022-12-11T13:36:24.375Z,9.35
2022-12-11T13:39:04.717Z,7.55
2022-12-11T13:41:35.397Z,7.97
2022-12-11T13:44:03.565Z,8.57
2022-12-11T13:46:35.554Z,7.75
2022-12-11T13:49:07.152Z,9.18
2022-12-11T13:51:38.003Z,8.35
2022-12-11T13:54:17.265Z,8.40
2022-12-11T13:57:25.702Z,8.77
2022-12-11T13:59:55.781Z,8.82
2022-12-11T14:02:30.487Z,9.60
2022-12-11T14:05:06.683Z,8.48
2022-12-11T14:07:38.012Z,8.32
2022-12-11T14:10:23.018Z,9.23
2022-12-11T14:13:06.056Z,8.27
2022-12-11T14:15:35.360Z,8.77
2022-12-11T14:18:02.131Z,8.05
2022-12-11T14:20:32.779Z,8.38
2022-12-11T14:23:30.190Z,8.73
2022-12-11T14:26:00.229Z,8.52
2022-12-11T14:28:29.345Z,9.18
2022-12-11T14:30:59.304Z,9.45
2022-12-11T14:33:31.512Z,8.90
2022-12-11T14:35:58.632Z,9.32
2022-12-11T14:38:29.289Z,9.07
2022-12-11T14:41:00.643Z,8.90
2022-12-11T14:43:37.368Z,9.48
2022-12-11T14:46:10.981Z,9.75
2022-12-11T14:48:52.943Z,10.77
2022-12-11T14:51:24.012Z,10.27
2022-12-11T14:53:53.146Z,9.40
2022-12-11T14:56:23.958Z,10.88
2022-12-11T14:59:00.835Z,9.63
2022-12-11T15:01:33.440Z,9.35
2022-12-11T15:04:15.310Z,9.27
2022-12-11T15:09:26.049Z,8.52
2022-12-11T15:11:55.232Z,10.23
2022-12-11T15:14:23.855Z,8.85
2022-12-11T15:16:53.720Z,8.50
2022-12-11T15:19:24.670Z,9.13
2022-12-11T15:21:51.522Z,10.68
2022-12-11T15:24:33.221Z,10.68
2022-12-11T15:27:01.203Z,10.63
2022-12-11T15:29:27.791Z,9.20
2022-12-11T15:32:10.834Z,11.10
2022-12-11T15:34:46.694Z,10.25
2022-12-11T15:37:28.825Z,10.38
2022-12-11T15:39:57.682Z,9.02
2022-12-11T15:42:30.434Z,8.18
2022-12-11T15:44:57.799Z,8.68
2022-12-11T15:47:27.463Z,8.65
2022-12-11T15:50:00.127Z,8.88
2022-12-11T15:52:26.854Z,8.73
2022-12-11T15:54:54.012Z,8.23
2022-12-11T15:57:23.974Z,8.45
2022-12-11T15:59:53.168Z,9.30
2022-12-11T16:02:19.885Z,7.68
2022-12-11T16:04:46.643Z,9.82
2022-12-11T16:07:18.710Z,7.60
2022-12-11T16:09:46.157Z,6.85
2022-12-11T16:12:14.316Z,9.38
2022-12-11T16:14:41.998Z,8.50
2022-12-11T16:17:09.847Z,9.38
2022-12-11T16:19:36.810Z,8.20
2022-12-11T16:22:04.335Z,7.72
2022-12-11T16:24:31.306Z,7.85
2022-12-11T16:26:57.904Z,8.63
2022-12-11T16:29:24.604Z,8.45
2022-12-11T16:31:51.113Z,8.00
2022-12-11T16:34:17.588Z,7.38
2022-12-11T16:36:44.282Z,8.00
2022-12-11T16:39:12.442Z,7.75
2022-12-11T16:41:38.978Z,10.85
2022-12-11T16:44:05.648Z,9.57
2022-12-11T16:46:32.249Z,10.52
2022-12-11T16:48:58.952Z,8.90
2022-12-11T16:51:25.530Z,8.10
2022-12-11T16:53:52.161Z,14.98
2022-12-11T16:56:18.719Z,17.58
2022-12-11T16:58:45.256Z,23.60
2022-12-11T17:01:13.221Z,18.05
2022-12-11T17:03:40.896Z,13.68
2022-12-11T17:06:12.378Z,12.23
2022-12-11T17:08:41.160Z,9.15
2022-12-11T17:11:09.866Z,9.25
2022-12-11T17:13:37.182Z,7.15
2022-12-11T17:16:09.519Z,7.70
2022-12-11T17:18:37.015Z,7.45
2022-12-11T17:21:08.675Z,6.75
2022-12-11T17:23:35.581Z,8.35
2022-12-11T17:26:02.768Z,8.63
2022-12-11T17:28:30.357Z,8.48
2022-12-11T17:30:59.083Z,8.23
2022-12-11T17:33:25.894Z,7.43
2022-12-11T17:35:52.583Z,6.93
2022-12-11T17:38:19.604Z,7.95
2022-12-11T17:40:46.111Z,7.38
2022-12-11T17:43:14.348Z,7.65
2022-12-11T17:45:45.917Z,7.45
2022-12-11T17:48:13.613Z,8.45
2022-12-11T17:50:44.612Z,7.75
2022-12-11T17:53:13.752Z,6.57
2022-12-11T17:55:44.343Z,10.32
2022-12-11T17:58:16.622Z,13.57
2022-12-11T18:00:45.596Z,9.23
2022-12-11T18:03:12.935Z,7.80
2022-12-11T18:05:51.166Z,8.20
2022-12-11T18:08:21.077Z,7.38
2022-12-11T18:10:48.638Z,7.47
2022-12-11T18:13:15.165Z,7.25
2022-12-11T18:15:42.153Z,7.63
2022-12-11T18:18:09.209Z,7.00
2022-12-11T18:20:37.761Z,7.15
2022-12-11T18:23:05.292Z,8.27
2022-12-11T18:25:32.321Z,9.10
2022-12-11T18:27:59.881Z,10.57
2022-12-11T18:30:28.212Z,9.00
2022-12-11T18:32:55.029Z,9.45
2022-12-11T18:35:21.726Z,9.30
2022-12-11T18:37:48.581Z,10.25
2022-12-11T18:40:15.383Z,10.20
2022-12-11T18:42:41.940Z,11.13
2022-12-11T18:45:09.480Z,14.68
2022-12-11T18:47:37.457Z,11.55
2022-12-11T18:50:08.050Z,14.90
2022-12-11T18:52:35.347Z,14.85
2022-12-11T18:55:01.938Z,13.23
2022-12-11T18:57:28.415Z,10.30
2022-12-11T18:59:55.169Z,9.68
2022-12-11T19:02:22.197Z,11.20
2022-12-11T19:04:48.928Z,9.30
2022-12-11T19:07:15.456Z,8.70
2022-12-11T19:09:47.872Z,8.20
2022-12-11T19:12:14.701Z,8.13
2022-12-11T19:14:42.464Z,9.25
2022-12-11T19:17:09.175Z,9.18
2022-12-11T19:19:36.015Z,8.55
2022-12-11T19:22:03.353Z,8.23
2022-12-11T19:24:30.488Z,9.45
2022-12-11T19:26:57.370Z,9.15
2022-12-11T19:29:29.769Z,7.03
2022-12-11T19:31:57.393Z,7.95
2022-12-11T19:34:24.655Z,8.00
2022-12-11T19:36:51.558Z,8.63
2022-12-11T19:39:18.213Z,8.70
2022-12-11T19:41:44.667Z,9.02
2022-12-11T19:44:11.268Z,9.15
2022-12-11T19:46:38.165Z,9.18
2022-12-11T19:49:05.722Z,9.30
2022-12-11T19:51:36.514Z,7.75
2022-12-11T19:54:04.511Z,7.90
2022-12-11T19:56:32.221Z,8.68
2022-12-11T19:59:00.698Z,8.88
2022-12-11T20:01:30.970Z,8.55
2022-12-11T20:04:00.432Z,9.57
2022-12-11T20:06:29.832Z,9.35
2022-12-11T20:08:56.598Z,9.68
2022-12-11T20:11:23.492Z,10.13
2022-12-11T20:13:50.435Z,10.07
2022-12-11T20:16:28.891Z,9.80
2022-12-11T20:19:06.114Z,8.95
2022-12-11T20:21:32.924Z,8.70
2022-12-11T20:24:01.097Z,9.02
2022-12-11T20:26:29.510Z,8.68
2022-12-11T20:28:56.676Z,8.23
2022-12-11T20:31:25.020Z,8.43
2022-12-11T20:33:53.221Z,8.80
2022-12-11T20:36:21.830Z,9.95
2022-12-11T20:38:49.209Z,9.73
2022-12-11T20:41:20.035Z,8.77
2022-12-11T20:43:49.001Z,9.40
2022-12-11T20:46:17.374Z,8.88
2022-12-11T20:48:45.047Z,8.57
2022-12-11T20:51:13.703Z,8.73
2022-12-11T20:53:42.474Z,8.60
2022-12-11T20:56:11.443Z,8.20
2022-12-11T20:58:38.167Z,8.95
2022-12-11T21:01:04.900Z,10.75
2022-12-11T21:03:34.514Z,10.07
2022-12-11T21:06:04.630Z,8.32
2022-12-11T21:08:31.248Z,9.48
2022-12-11T21:10:57.755Z,8.38
2022-12-11T21:13:24.251Z,9.23
2022-12-11T21:15:52.604Z,8.90
2022-12-11T21:18:19.476Z,8.23
2022-12-11T21:20:45.941Z,9.25
2022-12-11T21:23:12.442Z,9.45
2022-12-11T21:25:40.665Z,9.10
2022-12-11T21:28:07.387Z,8.38
2022-12-11T21:30:34.159Z,9.48
2022-12-11T21:33:00.916Z,9.50
2022-12-11T21:35:30.680Z,8.38
2022-12-11T21:37:57.198Z,8.32
2022-12-11T21:40:23.769Z,9.48
2022-12-11T21:42:50.380Z,9.10
2022-12-11T21:45:59.949Z,9.05
2022-12-11T21:48:04.529Z,9.90
2022-12-11T21:50:31.179Z,8.90
2022-12-11T21:52:57.916Z,9.15
2022-12-11T21:55:25.201Z,8.93
2022-12-11T21:57:54.336Z,9.10
2022-12-11T22:00:22.018Z,9.02
2022-12-11T22:02:49.041Z,9.30
2022-12-11T22:05:15.875Z,9.57
2022-12-11T22:07:42.461Z,10.63
2022-12-11T22:10:10.582Z,9.68
2022-12-11T22:12:37.133Z,10.60
2022-12-11T22:15:04.001Z,9.98
2022-12-11T22:17:31.586Z,10.20
2022-12-11T22:19:58.060Z,9.88
2022-12-11T22:22:24.517Z,9.68
2022-12-11T22:24:51.047Z,9.50
2022-12-11T22:27:23.303Z,10.65
2022-12-11T22:29:50.357Z,9.82
2022-12-11T22:32:16.949Z,11.00
2022-12-11T22:34:43.414Z,8.75
2022-12-11T22:37:09.899Z,9.73
2022-12-11T22:39:36.452Z,9.27
2022-12-11T22:42:03.235Z,9.45
2022-12-11T22:44:29.663Z,9.50
2022-12-11T22:46:56.189Z,10.65
2022-12-11T22:49:22.914Z,9.77
2022-12-11T22:51:49.449Z,10.57
2022-12-11T22:54:16.212Z,9.88
2022-12-11T22:56:42.767Z,8.45
2022-12-11T22:59:09.345Z,8.93
2022-12-11T23:01:35.952Z,9.27
2022-12-11T23:04:02.554Z,8.60
2022-12-11T23:06:29.142Z,8.70
2022-12-11T23:08:59.668Z,9.52
2022-12-11T23:11:34.893Z,9.77
2022-12-11T23:14:02.472Z,9.95
2022-12-11T23:16:29.204Z,10.68
2022-12-11T23:18:57.339Z,10.15
2022-12-11T23:21:24.207Z,10.50
2022-12-11T23:23:51.042Z,10.32
2022-12-11T23:26:18.710Z,10.18
2022-12-11T23:28:45.475Z,9.27
2022-12-11T23:31:12.318Z,10.27
2022-12-11T23:33:38.911Z,10.18
2022-12-11T23:36:06.681Z,10.40
2022-12-11T23:38:33.285Z,9.63
2022-12-11T23:41:01.908Z,11.07
2022-12-11T23:43:28.860Z,10.05
2022-12-11T23:45:55.364Z,9.20
2022-12-11T23:48:21.976Z,9.90
2022-12-11T23:50:48.480Z,10.32
2022-12-11T23:53:15.112Z,9.82
2022-12-11T23:55:44.007Z,11.00
2022-12-11T23:58:10.921Z,9.45
